Terminal Aerodrome Forecast
Issued by NWS Charleston, WV

Current Version | Previous Version | Text Only | Print | Product List | Glossary Off
Versions: 1 2 3 4 5 6 7 8 9 10 11 12 13 14 15 16 17 18 19 20 21 22 23 24 25 26

000
FTUS41 KRLX 250210 AAA
TAFEKN
TAF AMD
KEKN 250210Z 2502/2524 VRB02KT P6SM SKC
     FM251600 24008KT P6SM SCT045 BKN250
     FM252200 24006KT P6SM SCT045 BKN100=

USA.gov is the U.S. government's official web portal to all federal, state and local government web resources and services.